Athens, Ohio
Current Conditions -  °F | °C
As of 4:55 PM on Tuesday 25 Nov 2014 (Local Time) from KUNI Reporting Station
Clear Clear  
Wind Chill: 43°   Ceiling: Unl
Heat Index: 45°   Visibility: 10mi
Dew Point: 28°   Wind: 5mph
Humidity: 51%   Direction: 300°WNW
Pressure: 30.09"   Gusts: NA
Location:  39.33°N, 82.1°W
Report Text: KUNI 252155Z AUTO 30004KT 10SM CLR 07/M02 A3009 RMK AO2 T00731023
Loading
Personal Weather Stations






























Interactive Weather Map New forecast layout! Learn more

10-Day Weather Forecast

Advertisements
Track Severe Weather on mobile